sensor_id;sensor_type;location;lat;lon;timestamp;P1;P4;P2;P0;N10;N4;N25;N1;N05;TS
84439;SPS30;74675;51.980;5.730;2023-12-20T00:00:21;3.4;3.3;3.0;2.6;;;;18.0;40.0;
84439;SPS30;74675;51.980;5.730;2023-12-20T00:02:50;3.7;3.6;3.3;2.8;;;;18.0;40.0;
84439;SPS30;74675;51.980;5.730;2023-12-20T00:05:20;4.1;4.0;3.6;3.0;;;;18.0;41.0;
84439;SPS30;74675;51.980;5.730;2023-12-20T00:07:49;4.1;4.0;3.6;3.0;;;;18.0;41.0;
84439;SPS30;74675;51.980;5.730;2023-12-20T00:10:17;4.6;4.4;4.0;3.2;;;;19.0;41.0;
84439;SPS30;74675;51.980;5.730;2023-12-20T00:12:46;4.1;3.9;3.6;3.0;;;;19.0;41.0;
84439;SPS30;74675;51.980;5.730;2023-12-20T00:15:15;3.6;3.5;3.2;2.8;;;;19.0;41.0;
84439;SPS30;74675;51.980;5.730;2023-12-20T00:17:45;3.9;3.8;3.5;3.0;;;;19.0;41.0;
84439;SPS30;74675;51.980;5.730;2023-12-20T00:20:16;3.7;3.6;3.3;2.8;;;;20.0;41.0;
84439;SPS30;74675;51.980;5.730;2023-12-20T00:22:45;4.0;3.8;3.5;2.9;;;;20.0;41.0;
84439;SPS30;74675;51.980;5.730;2023-12-20T00:25:14;3.8;3.7;3.4;2.9;;;;19.0;42.0;
84439;SPS30;74675;51.980;5.730;2023-12-20T00:27:42;4.0;3.9;3.6;3.1;;;;19.0;42.0;
84439;SPS30;74675;51.980;5.730;2023-12-20T00:30:12;4.0;3.9;3.6;3.0;;;;18.0;41.0;
84439;SPS30;74675;51.980;5.730;2023-12-20T00:32:43;3.8;3.7;3.4;2.9;;;;18.0;41.0;
84439;SPS30;74675;51.980;5.730;2023-12-20T00:35:14;3.3;3.2;2.9;2.5;;;;18.0;41.0;
84439;SPS30;74675;51.980;5.730;2023-12-20T00:37:43;3.7;3.5;3.1;2.6;;;;18.0;42.0;
84439;SPS30;74675;51.980;5.730;2023-12-20T00:40:12;4.3;4.1;3.7;3.1;;;;17.0;42.0;
84439;SPS30;74675;51.980;5.730;2023-12-20T00:42:40;3.8;3.7;3.3;2.7;;;;17.0;42.0;
84439;SPS30;74675;51.980;5.730;2023-12-20T00:45:09;4.9;4.6;3.9;3.0;;;;17.0;43.0;
84439;SPS30;74675;51.980;5.730;2023-12-20T00:47:38;4.1;3.9;3.3;2.5;;;;18.0;42.0;
84439;SPS30;74675;51.980;5.730;2023-12-20T00:50:07;4.2;3.9;3.3;2.5;;;;19.0;42.0;
84439;SPS30;74675;51.980;5.730;2023-12-20T00:52:36;4.8;4.6;3.9;3.0;;;;21.0;41.0;
84439;SPS30;74675;51.980;5.730;2023-12-20T00:55:05;4.3;4.0;3.5;2.7;;;;23.0;41.0;
84439;SPS30;74675;51.980;5.730;2023-12-20T00:57:34;4.3;4.1;3.5;2.7;;;;24.0;41.0;
84439;SPS30;74675;51.980;5.730;2023-12-20T01:00:03;4.4;4.2;3.6;2.8;;;;25.0;41.0;
84439;SPS30;74675;51.980;5.730;2023-12-20T01:02:32;4.7;4.5;3.9;3.1;;;;27.0;41.0;
84439;SPS30;74675;51.980;5.730;2023-12-20T01:05:00;4.2;3.9;3.4;2.7;;;;27.0;41.0;
84439;SPS30;74675;51.980;5.730;2023-12-20T01:07:29;4.4;4.2;3.7;2.9;;;;28.0;41.0;
84439;SPS30;74675;51.980;5.730;2023-12-20T01:09:57;4.7;4.4;3.9;3.1;;;;28.0;41.0;
84439;SPS30;74675;51.980;5.730;2023-12-20T01:12:26;3.8;3.6;3.2;2.6;;;;29.0;41.0;
84439;SPS30;74675;51.980;5.730;2023-12-20T01:14:54;3.7;3.6;3.1;2.5;;;;29.0;41.0;
84439;SPS30;74675;51.980;5.730;2023-12-20T01:17:24;3.8;3.6;3.1;2.5;;;;30.0;41.0;
84439;SPS30;74675;51.980;5.730;2023-12-20T01:19:53;4.6;4.3;3.7;2.8;;;;32.0;40.0;
84439;SPS30;74675;51.980;5.730;2023-12-20T01:22:22;4.2;3.9;3.4;2.6;;;;33.0;40.0;
84439;SPS30;74675;51.980;5.730;2023-12-20T01:24:50;4.3;4.0;3.4;2.5;;;;34.0;41.0;
84439;SPS30;74675;51.980;5.730;2023-12-20T01:27:19;4.6;4.3;3.7;2.7;;;;34.0;41.0;
84439;SPS30;74675;51.980;5.730;2023-12-20T01:29:47;5.3;4.9;4.1;2.9;;;;35.0;41.0;
84439;SPS30;74675;51.980;5.730;2023-12-20T01:32:16;4.2;4.0;3.3;2.4;;;;36.0;41.0;
84439;SPS30;74675;51.980;5.730;2023-12-20T01:34:45;4.2;3.9;3.4;2.6;;;;36.0;41.0;
84439;SPS30;74675;51.980;5.730;2023-12-20T01:37:14;4.6;4.3;3.7;2.8;;;;36.0;41.0;
84439;SPS30;74675;51.980;5.730;2023-12-20T01:39:43;4.3;4.1;3.4;2.6;;;;36.0;41.0;
84439;SPS30;74675;51.980;5.730;2023-12-20T01:42:11;4.6;4.3;3.6;2.7;;;;36.0;41.0;
84439;SPS30;74675;51.980;5.730;2023-12-20T01:44:40;4.7;4.4;3.7;2.7;;;;37.0;41.0;
84439;SPS30;74675;51.980;5.730;2023-12-20T01:47:08;5.0;4.7;3.9;2.8;;;;36.0;42.0;
84439;SPS30;74675;51.980;5.730;2023-12-20T01:49:38;4.0;3.8;3.1;2.2;;;;35.0;42.0;
84439;SPS30;74675;51.980;5.730;2023-12-20T01:52:07;3.8;3.6;3.0;2.2;;;;35.0;42.0;
84439;SPS30;74675;51.980;5.730;2023-12-20T01:54:37;4.1;3.8;3.2;2.3;;;;34.0;42.0;
84439;SPS30;74675;51.980;5.730;2023-12-20T01:57:08;4.3;4.0;3.4;2.5;;;;33.0;43.0;
84439;SPS30;74675;51.980;5.730;2023-12-20T01:59:38;4.9;4.6;3.8;2.8;;;;32.0;43.0;
84439;SPS30;74675;51.980;5.730;2023-12-20T02:02:08;4.3;4.0;3.2;2.2;;;;32.0;44.0;
84439;SPS30;74675;51.980;5.730;2023-12-20T02:04:38;5.4;4.9;3.9;2.6;;;;32.0;44.0;
84439;SPS30;74675;51.980;5.730;2023-12-20T02:07:07;4.4;4.0;3.2;2.2;;;;34.0;44.0;
84439;SPS30;74675;51.980;5.730;2023-12-20T02:09:37;4.4;4.0;3.2;2.2;;;;35.0;44.0;
84439;SPS30;74675;51.980;5.730;2023-12-20T02:12:07;4.0;3.8;3.1;2.2;;;;36.0;45.0;
84439;SPS30;74675;51.980;5.730;2023-12-20T02:14:38;4.6;4.3;3.5;2.4;;;;35.0;46.0;
84439;SPS30;74675;51.980;5.730;2023-12-20T02:17:07;4.5;4.2;3.4;2.4;;;;35.0;47.0;
84439;SPS30;74675;51.980;5.730;2023-12-20T02:19:36;4.5;4.1;3.3;2.2;;;;35.0;48.0;
84439;SPS30;74675;51.980;5.730;2023-12-20T02:22:08;5.2;4.7;3.7;2.4;;;;34.0;48.0;
84439;SPS30;74675;51.980;5.730;2023-12-20T02:24:37;5.9;5.4;4.2;2.7;;;;33.0;49.0;
84439;SPS30;74675;51.980;5.730;2023-12-20T02:27:06;4.9;4.5;3.5;2.3;;;;32.0;50.0;
84439;SPS30;74675;51.980;5.730;2023-12-20T02:29:36;6.3;5.7;4.5;2.9;;;;31.0;50.0;
84439;SPS30;74675;51.980;5.730;2023-12-20T02:32:05;6.2;5.6;4.4;2.7;;;;31.0;50.0;
84439;SPS30;74675;51.980;5.730;2023-12-20T02:34:33;4.9;4.5;3.5;2.3;;;;30.0;50.0;
84439;SPS30;74675;51.980;5.730;2023-12-20T02:37:02;5.2;4.8;3.8;2.5;;;;30.0;51.0;
84439;SPS30;74675;51.980;5.730;2023-12-20T02:39:31;5.0;4.6;3.7;2.5;;;;29.0;51.0;
84439;SPS30;74675;51.980;5.730;2023-12-20T02:41:59;4.3;4.0;3.3;2.3;;;;29.0;51.0;
84439;SPS30;74675;51.980;5.730;2023-12-20T02:44:28;3.8;3.5;2.9;2.0;;;;28.0;51.0;
84439;SPS30;74675;51.980;5.730;2023-12-20T02:46:56;4.9;4.6;3.7;2.5;;;;28.0;52.0;
84439;SPS30;74675;51.980;5.730;2023-12-20T02:49:25;5.7;5.3;4.2;2.8;;;;28.0;53.0;
84439;SPS30;74675;51.980;5.730;2023-12-20T02:51:54;5.6;5.2;4.1;2.7;;;;27.0;53.0;
84439;SPS30;74675;51.980;5.730;2023-12-20T02:54:22;6.1;5.6;4.4;2.9;;;;27.0;54.0;
84439;SPS30;74675;51.980;5.730;2023-12-20T02:56:51;5.7;5.3;4.2;2.8;;;;27.0;54.0;
84439;SPS30;74675;51.980;5.730;2023-12-20T02:59:19;5.7;5.2;4.1;2.8;;;;27.0;54.0;
84439;SPS30;74675;51.980;5.730;2023-12-20T03:01:48;5.4;5.0;4.0;2.7;;;;26.0;55.0;
84439;SPS30;74675;51.980;5.730;2023-12-20T03:04:16;6.0;5.6;4.5;3.1;;;;25.0;55.0;
84439;SPS30;74675;51.980;5.730;2023-12-20T03:06:45;5.7;5.3;4.3;3.0;;;;25.0;55.0;
84439;SPS30;74675;51.980;5.730;2023-12-20T03:09:13;5.9;5.5;4.4;3.0;;;;25.0;55.0;
84439;SPS30;74675;51.980;5.730;2023-12-20T03:11:42;5.6;5.2;4.2;2.8;;;;24.0;55.0;
84439;SPS30;74675;51.980;5.730;2023-12-20T03:14:10;5.8;5.4;4.4;3.1;;;;24.0;55.0;
84439;SPS30;74675;51.980;5.730;2023-12-20T03:16:39;5.5;5.1;4.2;2.9;;;;24.0;55.0;
84439;SPS30;74675;51.980;5.730;2023-12-20T03:19:08;5.1;4.7;3.8;2.6;;;;24.0;55.0;
84439;SPS30;74675;51.980;5.730;2023-12-20T03:21:36;5.2;4.8;3.9;2.7;;;;24.0;55.0;
84439;SPS30;74675;51.980;5.730;2023-12-20T03:24:05;5.6;5.2;4.2;2.9;;;;24.0;54.0;
84439;SPS30;74675;51.980;5.730;2023-12-20T03:26:33;5.1;4.8;3.9;2.7;;;;25.0;54.0;
84439;SPS30;74675;51.980;5.730;2023-12-20T03:29:02;5.7;5.3;4.4;3.1;;;;24.0;54.0;
84439;SPS30;74675;51.980;5.730;2023-12-20T03:31:31;5.9;5.5;4.5;3.1;;;;24.0;54.0;
84439;SPS30;74675;51.980;5.730;2023-12-20T03:33:59;5.6;5.2;4.3;3.0;;;;24.0;54.0;
84439;SPS30;74675;51.980;5.730;2023-12-20T03:36:28;6.0;5.6;4.6;3.3;;;;24.0;54.0;
84439;SPS30;74675;51.980;5.730;2023-12-20T03:38:56;5.4;5.1;4.3;3.1;;;;24.0;54.0;
84439;SPS30;74675;51.980;5.730;2023-12-20T03:41:25;5.0;4.7;4.0;2.9;;;;25.0;54.0;
84439;SPS30;74675;51.980;5.730;2023-12-20T03:43:54;6.0;5.6;4.7;3.4;;;;26.0;54.0;
84439;SPS30;74675;51.980;5.730;2023-12-20T03:46:22;5.8;5.5;4.5;3.3;;;;26.0;55.0;
84439;SPS30;74675;51.980;5.730;2023-12-20T03:48:51;6.3;5.8;4.8;3.4;;;;26.0;56.0;
84439;SPS30;74675;51.980;5.730;2023-12-20T03:51:19;5.3;4.9;4.0;2.8;;;;26.0;56.0;
84439;SPS30;74675;51.980;5.730;2023-12-20T03:53:48;6.3;5.8;4.8;3.4;;;;26.0;56.0;
84439;SPS30;74675;51.980;5.730;2023-12-20T03:56:16;5.4;5.0;4.1;2.9;;;;26.0;56.0;
84439;SPS30;74675;51.980;5.730;2023-12-20T03:58:45;4.6;4.3;3.6;2.7;;;;26.0;56.0;
84439;SPS30;74675;51.980;5.730;2023-12-20T04:01:13;5.8;5.4;4.5;3.2;;;;27.0;56.0;
84439;SPS30;74675;51.980;5.730;2023-12-20T04:03:42;5.3;5.0;4.1;2.9;;;;28.0;56.0;
84439;SPS30;74675;51.980;5.730;2023-12-20T04:06:10;5.4;5.0;4.1;2.8;;;;28.0;56.0;
84439;SPS30;74675;51.980;5.730;2023-12-20T04:08:46;6.2;5.7;4.7;3.2;;;;27.0;56.0;
84439;SPS30;74675;51.980;5.730;2023-12-20T04:11:15;6.3;5.8;4.7;3.2;;;;27.0;57.0;
84439;SPS30;74675;51.980;5.730;2023-12-20T04:13:43;5.9;5.5;4.4;3.0;;;;27.0;57.0;
84439;SPS30;74675;51.980;5.730;2023-12-20T04:16:12;6.3;5.8;4.6;3.0;;;;26.0;57.0;
84439;SPS30;74675;51.980;5.730;2023-12-20T04:18:41;6.7;6.2;4.9;3.3;;;;26.0;57.0;
84439;SPS30;74675;51.980;5.730;2023-12-20T04:21:09;5.4;5.0;4.0;2.6;;;;25.0;57.0;
84439;SPS30;74675;51.980;5.730;2023-12-20T04:23:38;6.0;5.5;4.3;2.7;;;;24.0;58.0;
84439;SPS30;74675;51.980;5.730;2023-12-20T04:26:08;8.0;7.3;5.6;3.4;;;;24.0;58.0;
84439;SPS30;74675;51.980;5.730;2023-12-20T04:28:37;6.1;5.6;4.3;2.6;;;;23.0;59.0;
84439;SPS30;74675;51.980;5.730;2023-12-20T04:31:06;6.2;5.6;4.5;2.9;;;;22.0;59.0;
84439;SPS30;74675;51.980;5.730;2023-12-20T04:33:34;7.3;6.6;5.1;3.2;;;;22.0;59.0;
84439;SPS30;74675;51.980;5.730;2023-12-20T04:36:05;7.4;6.8;5.3;3.3;;;;21.0;59.0;
84439;SPS30;74675;51.980;5.730;2023-12-20T04:38:35;7.7;7.0;5.5;3.6;;;;21.0;58.0;
84439;SPS30;74675;51.980;5.730;2023-12-20T04:41:04;7.0;6.4;4.9;3.0;;;;21.0;59.0;
84439;SPS30;74675;51.980;5.730;2023-12-20T04:43:32;7.7;7.0;5.4;3.4;;;;20.0;59.0;
84439;SPS30;74675;51.980;5.730;2023-12-20T04:46:01;7.2;6.5;5.0;3.1;;;;20.0;59.0;
84439;SPS30;74675;51.980;5.730;2023-12-20T04:48:30;7.3;6.6;5.1;3.1;;;;19.0;60.0;
84439;SPS30;74675;51.980;5.730;2023-12-20T04:50:58;6.9;6.2;4.7;2.7;;;;19.0;59.0;
84439;SPS30;74675;51.980;5.730;2023-12-20T04:53:27;8.4;7.6;5.8;3.4;;;;18.0;59.0;
84439;SPS30;74675;51.980;5.730;2023-12-20T04:55:56;6.6;6.0;4.6;2.8;;;;18.0;59.0;
84439;SPS30;74675;51.980;5.730;2023-12-20T04:58:26;7.0;6.3;4.8;2.9;;;;18.0;59.0;
84439;SPS30;74675;51.980;5.730;2023-12-20T05:00:55;6.8;6.2;4.7;2.9;;;;17.0;61.0;
84439;SPS30;74675;51.980;5.730;2023-12-20T05:03:23;7.1;6.5;5.0;3.0;;;;16.0;61.0;
84439;SPS30;74675;51.980;5.730;2023-12-20T05:05:52;7.4;6.7;5.1;3.1;;;;15.0;62.0;
84439;SPS30;74675;51.980;5.730;2023-12-20T05:08:20;8.1;7.4;5.7;3.5;;;;15.0;63.0;
84439;SPS30;74675;51.980;5.730;2023-12-20T05:10:49;6.9;6.2;4.8;2.9;;;;14.0;64.0;
84439;SPS30;74675;51.980;5.730;2023-12-20T05:13:17;7.0;6.4;4.9;2.9;;;;13.0;64.0;
84439;SPS30;74675;51.980;5.730;2023-12-20T05:15:46;8.6;7.8;5.9;3.5;;;;13.0;63.0;
84439;SPS30;74675;51.980;5.730;2023-12-20T05:18:15;7.7;7.0;5.2;3.0;;;;13.0;63.0;
84439;SPS30;74675;51.980;5.730;2023-12-20T05:20:46;8.3;7.4;5.5;3.1;;;;13.0;64.0;
84439;SPS30;74675;51.980;5.730;2023-12-20T05:23:14;7.2;6.5;4.9;2.8;;;;13.0;63.0;
84439;SPS30;74675;51.980;5.730;2023-12-20T05:25:43;7.3;6.6;4.9;2.8;;;;13.0;63.0;
84439;SPS30;74675;51.980;5.730;2023-12-20T05:28:12;8.8;7.9;6.0;3.5;;;;13.0;64.0;
84439;SPS30;74675;51.980;5.730;2023-12-20T05:30:40;8.1;7.3;5.5;3.1;;;;13.0;64.0;
84439;SPS30;74675;51.980;5.730;2023-12-20T05:33:09;7.3;6.6;4.9;2.8;;;;13.0;66.0;
84439;SPS30;74675;51.980;5.730;2023-12-20T05:35:38;7.6;6.9;5.2;3.0;;;;12.0;72.0;
84439;SPS30;74675;51.980;5.730;2023-12-20T05:38:06;7.0;6.3;4.7;2.7;;;;11.0;73.0;
84439;SPS30;74675;51.980;5.730;2023-12-20T05:40:35;7.6;6.9;5.3;3.2;;;;11.0;71.0;
84439;SPS30;74675;51.980;5.730;2023-12-20T05:43:03;6.7;6.1;4.6;2.8;;;;10.0;70.0;
84439;SPS30;74675;51.980;5.730;2023-12-20T05:45:32;7.5;6.9;5.3;3.3;;;;10.0;69.0;
84439;SPS30;74675;51.980;5.730;2023-12-20T05:48:00;6.5;5.9;4.5;2.7;;;;10.0;69.0;
84439;SPS30;74675;51.980;5.730;2023-12-20T05:50:29;6.7;6.1;4.7;2.9;;;;10.0;89.0;
84439;SPS30;74675;51.980;5.730;2023-12-20T05:52:57;7.5;6.8;5.2;3.1;;;;10.0;81.0;
84439;SPS30;74675;51.980;5.730;2023-12-20T05:55:28;8.3;7.5;5.6;3.2;;;;9.0;77.0;
84439;SPS30;74675;51.980;5.730;2023-12-20T05:57:58;8.4;7.6;5.8;3.4;;;;9.0;74.0;
84439;SPS30;74675;51.980;5.730;2023-12-20T06:00:27;8.4;7.5;5.6;3.2;;;;9.0;71.0;
84439;SPS30;74675;51.980;5.730;2023-12-20T06:02:57;7.5;6.9;5.3;3.2;;;;9.0;70.0;
84439;SPS30;74675;51.980;5.730;2023-12-20T06:05:26;6.7;6.1;4.6;2.7;;;;9.0;69.0;
84439;SPS30;74675;51.980;5.730;2023-12-20T06:07:54;6.9;6.2;4.7;2.7;;;;9.0;69.0;
84439;SPS30;74675;51.980;5.730;2023-12-20T06:10:27;7.8;7.1;5.4;3.2;;;;9.0;68.0;
84439;SPS30;74675;51.980;5.730;2023-12-20T06:12:55;6.8;6.2;4.7;2.9;;;;9.0;68.0;
84439;SPS30;74675;51.980;5.730;2023-12-20T06:15:25;7.9;7.1;5.4;3.1;;;;9.0;75.0;
84439;SPS30;74675;51.980;5.730;2023-12-20T06:17:53;7.1;6.4;4.8;2.8;;;;9.0;74.0;
84439;SPS30;74675;51.980;5.730;2023-12-20T06:20:22;7.6;6.9;5.2;3.1;;;;9.0;74.0;
84439;SPS30;74675;51.980;5.730;2023-12-20T06:22:51;8.2;7.4;5.6;3.4;;;;9.0;73.0;
84439;SPS30;74675;51.980;5.730;2023-12-20T06:25:19;7.2;6.6;5.1;3.2;;;;9.0;74.0;
84439;SPS30;74675;51.980;5.730;2023-12-20T06:27:47;7.8;7.1;5.6;3.6;;;;9.0;74.0;
84439;SPS30;74675;51.980;5.730;2023-12-20T06:30:17;6.6;6.0;4.7;2.9;;;;8.0;74.0;
84439;SPS30;74675;51.980;5.730;2023-12-20T06:32:45;7.7;7.0;5.4;3.3;;;;8.0;80.0;
84439;SPS30;74675;51.980;5.730;2023-12-20T06:35:14;7.9;7.2;5.4;3.1;;;;8.0;80.0;
84439;SPS30;74675;51.980;5.730;2023-12-20T06:37:43;8.3;7.5;5.7;3.4;;;;8.0;79.0;
84439;SPS30;74675;51.980;5.730;2023-12-20T06:40:12;8.5;7.8;6.0;3.7;;;;8.0;78.0;
84439;SPS30;74675;51.980;5.730;2023-12-20T06:42:40;6.9;6.2;4.8;2.9;;;;8.0;77.0;
84439;SPS30;74675;51.980;5.730;2023-12-20T06:45:09;7.8;7.1;5.6;3.6;;;;8.0;77.0;
84439;SPS30;74675;51.980;5.730;2023-12-20T06:47:38;6.8;6.3;5.1;3.5;;;;8.0;79.0;
84439;SPS30;74675;51.980;5.730;2023-12-20T06:50:07;5.6;5.1;4.1;2.7;;;;8.0;87.0;
84439;SPS30;74675;51.980;5.730;2023-12-20T06:52:36;7.2;6.6;5.1;3.2;;;;8.0;87.0;
84439;SPS30;74675;51.980;5.730;2023-12-20T06:55:05;7.1;6.6;5.2;3.4;;;;8.0;86.0;
84439;SPS30;74675;51.980;5.730;2023-12-20T06:57:33;7.1;6.5;5.2;3.5;;;;8.0;84.0;
84439;SPS30;74675;51.980;5.730;2023-12-20T07:00:02;6.7;6.2;4.9;3.3;;;;8.0;84.0;
84439;SPS30;74675;51.980;5.730;2023-12-20T07:02:31;6.7;6.2;5.1;3.6;;;;8.0;86.0;
84439;SPS30;74675;51.980;5.730;2023-12-20T07:05:00;8.6;7.9;6.5;4.6;;;;8.0;109.0;
84439;SPS30;74675;51.980;5.730;2023-12-20T07:07:29;6.2;5.8;4.9;3.7;;;;7.0;107.0;
84439;SPS30;74675;51.980;5.730;2023-12-20T07:09:58;5.9;5.6;4.8;3.6;;;;7.0;145.0;
84439;SPS30;74675;51.980;5.730;2023-12-20T07:12:27;6.8;6.4;5.6;4.4;;;;6.0;121.0;
84439;SPS30;74675;51.980;5.730;2023-12-20T07:14:55;6.1;5.7;5.0;3.8;;;;6.0;105.0;
84439;SPS30;74675;51.980;5.730;2023-12-20T07:17:24;7.3;6.9;5.9;4.6;;;;6.0;106.0;
84439;SPS30;74675;51.980;5.730;2023-12-20T07:19:53;6.0;5.7;4.9;3.7;;;;5.0;110.0;
84439;SPS30;74675;51.980;5.730;2023-12-20T07:22:22;6.6;6.2;5.2;3.8;;;;5.0;136.0;
84439;SPS30;74675;51.980;5.730;2023-12-20T07:24:50;5.7;5.3;4.5;3.3;;;;5.0;123.0;
84439;SPS30;74675;51.980;5.730;2023-12-20T07:27:21;6.3;5.9;4.9;3.5;;;;5.0;118.0;
84439;SPS30;74675;51.980;5.730;2023-12-20T07:29:51;6.9;6.5;5.4;3.8;;;;4.0;128.0;
84439;SPS30;74675;51.980;5.730;2023-12-20T07:32:20;8.1;7.5;6.0;4.0;;;;4.0;114.0;
84439;SPS30;74675;51.980;5.730;2023-12-20T07:34:49;7.5;6.9;5.4;3.6;;;;4.0;110.0;
84439;SPS30;74675;51.980;5.730;2023-12-20T07:37:17;5.7;5.3;4.2;2.9;;;;4.0;110.0;
84439;SPS30;74675;51.980;5.730;2023-12-20T07:39:47;7.0;6.5;5.4;3.8;;;;4.0;106.0;
84439;SPS30;74675;51.980;5.730;2023-12-20T07:42:15;6.8;6.3;5.2;3.7;;;;4.0;103.0;
84439;SPS30;74675;51.980;5.730;2023-12-20T07:44:48;7.3;6.8;5.7;4.1;;;;4.0;107.0;
84439;SPS30;74675;51.980;5.730;2023-12-20T07:47:16;7.4;6.8;5.6;3.9;;;;4.0;101.0;
84439;SPS30;74675;51.980;5.730;2023-12-20T07:49:47;7.1;6.6;5.3;3.6;;;;4.0;99.0;
84439;SPS30;74675;51.980;5.730;2023-12-20T07:52:17;6.9;6.4;5.1;3.5;;;;4.0;100.0;
84439;SPS30;74675;51.980;5.730;2023-12-20T07:54:48;7.3;6.8;5.4;3.6;;;;4.0;101.0;
84439;SPS30;74675;51.980;5.730;2023-12-20T07:57:16;6.1;5.6;4.5;3.0;;;;4.0;102.0;
84439;SPS30;74675;51.980;5.730;2023-12-20T07:59:47;6.6;6.1;5.1;3.7;;;;4.0;103.0;
84439;SPS30;74675;51.980;5.730;2023-12-20T08:02:16;7.8;7.2;5.8;3.9;;;;4.0;104.0;
84439;SPS30;74675;51.980;5.730;2023-12-20T08:04:44;7.6;7.0;5.6;3.8;;;;4.0;100.0;
84439;SPS30;74675;51.980;5.730;2023-12-20T08:07:13;6.6;6.1;4.9;3.4;;;;4.0;155.0;
84439;SPS30;74675;51.980;5.730;2023-12-20T08:09:42;7.5;6.9;5.4;3.6;;;;4.0;109.0;
84439;SPS30;74675;51.980;5.730;2023-12-20T08:12:11;6.4;5.9;4.7;3.2;;;;4.0;102.0;
84439;SPS30;74675;51.980;5.730;2023-12-20T08:14:40;7.6;6.9;5.4;3.4;;;;4.0;99.0;
84439;SPS30;74675;51.980;5.730;2023-12-20T08:17:08;7.6;7.0;5.5;3.6;;;;4.0;98.0;
84439;SPS30;74675;51.980;5.730;2023-12-20T08:19:38;6.7;6.2;5.1;3.5;;;;4.0;99.0;
84439;SPS30;74675;51.980;5.730;2023-12-20T08:22:07;6.6;6.0;4.8;3.1;;;;4.0;106.0;
84439;SPS30;74675;51.980;5.730;2023-12-20T08:24:36;5.7;5.3;4.2;2.8;;;;4.0;107.0;
84439;SPS30;74675;51.980;5.730;2023-12-20T08:27:05;7.9;7.2;5.6;3.6;;;;4.0;106.0;
84439;SPS30;74675;51.980;5.730;2023-12-20T08:29:35;6.9;6.3;4.9;3.1;;;;4.0;103.0;
84439;SPS30;74675;51.980;5.730;2023-12-20T08:32:04;7.5;6.9;5.4;3.4;;;;4.0;109.0;
84439;SPS30;74675;51.980;5.730;2023-12-20T08:34:33;6.0;5.5;4.3;2.7;;;;4.0;103.0;
84439;SPS30;74675;51.980;5.730;2023-12-20T08:37:01;7.4;6.8;5.2;3.2;;;;4.0;98.0;
84439;SPS30;74675;51.980;5.730;2023-12-20T08:39:30;6.7;6.1;4.7;2.9;;;;4.0;98.0;
84439;SPS30;74675;51.980;5.730;2023-12-20T08:41:59;7.4;6.7;5.1;3.2;;;;4.0;170.0;
84439;SPS30;74675;51.980;5.730;2023-12-20T08:44:28;6.1;5.6;4.4;2.9;;;;4.0;115.0;
84439;SPS30;74675;51.980;5.730;2023-12-20T08:46:56;8.2;7.4;5.7;3.5;;;;4.0;95.0;
84439;SPS30;74675;51.980;5.730;2023-12-20T08:49:25;7.6;6.9;5.2;3.2;;;;4.0;95.0;
84439;SPS30;74675;51.980;5.730;2023-12-20T08:51:55;8.0;7.3;5.5;3.2;;;;4.0;95.0;
84439;SPS30;74675;51.980;5.730;2023-12-20T08:54:24;7.3;6.6;5.0;3.0;;;;4.0;94.0;
84439;SPS30;74675;51.980;5.730;2023-12-20T08:56:52;6.6;6.0;4.7;3.0;;;;4.0;94.0;
84439;SPS30;74675;51.980;5.730;2023-12-20T08:59:21;7.9;7.2;5.5;3.4;;;;4.0;96.0;
84439;SPS30;74675;51.980;5.730;2023-12-20T09:01:50;6.4;5.8;4.5;2.8;;;;3.0;95.0;
84439;SPS30;74675;51.980;5.730;2023-12-20T09:04:20;6.9;6.3;4.9;3.1;;;;3.0;95.0;
84439;SPS30;74675;51.980;5.730;2023-12-20T09:06:49;7.9;7.1;5.3;3.1;;;;3.0;94.0;
84439;SPS30;74675;51.980;5.730;2023-12-20T09:09:18;11.3;10.2;7.7;4.6;;;;4.0;104.0;
84439;SPS30;74675;51.980;5.730;2023-12-20T09:11:46;8.5;7.8;6.2;4.1;;;;4.0;102.0;
84439;SPS30;74675;51.980;5.730;2023-12-20T09:14:17;7.5;6.9;5.5;3.7;;;;4.0;100.0;
84439;SPS30;74675;51.980;5.730;2023-12-20T09:16:46;6.5;6.0;4.7;3.1;;;;4.0;97.0;
84439;SPS30;74675;51.980;5.730;2023-12-20T09:19:17;7.6;7.0;5.5;3.6;;;;4.0;97.0;
84439;SPS30;74675;51.980;5.730;2023-12-20T09:21:46;7.5;6.9;5.5;3.6;;;;4.0;98.0;
84439;SPS30;74675;51.980;5.730;2023-12-20T09:24:15;7.7;7.1;5.8;4.0;;;;4.0;99.0;
84439;SPS30;74675;51.980;5.730;2023-12-20T09:26:43;6.9;6.4;5.1;3.4;;;;4.0;100.0;
84439;SPS30;74675;51.980;5.730;2023-12-20T09:29:12;6.8;6.2;4.9;3.2;;;;4.0;101.0;
84439;SPS30;74675;51.980;5.730;2023-12-20T09:31:43;8.6;7.8;6.1;3.9;;;;4.0;205.0;
84439;SPS30;74675;51.980;5.730;2023-12-20T09:34:13;8.6;7.8;6.0;3.7;;;;4.0;128.0;
84439;SPS30;74675;51.980;5.730;2023-12-20T09:36:43;6.8;6.2;4.8;3.0;;;;3.0;125.0;
84439;SPS30;74675;51.980;5.730;2023-12-20T09:39:13;8.2;7.5;5.8;3.6;;;;3.0;110.0;
84439;SPS30;74675;51.980;5.730;2023-12-20T09:41:43;9.0;8.1;6.2;3.7;;;;3.0;104.0;
84439;SPS30;74675;51.980;5.730;2023-12-20T09:44:14;6.9;6.3;4.9;3.1;;;;3.0;102.0;
84439;SPS30;74675;51.980;5.730;2023-12-20T09:46:45;8.7;7.9;6.1;3.8;;;;3.0;104.0;
84439;SPS30;74675;51.980;5.730;2023-12-20T09:49:21;6.8;6.2;4.9;3.1;;;;3.0;109.0;
84439;SPS30;74675;51.980;5.730;2023-12-20T09:51:49;7.3;6.6;5.2;3.3;;;;3.0;118.0;
84439;SPS30;74675;51.980;5.730;2023-12-20T09:54:20;8.2;7.4;5.7;3.5;;;;3.0;104.0;
84439;SPS30;74675;51.980;5.730;2023-12-20T09:56:50;6.6;6.0;4.8;3.1;;;;3.0;103.0;
84439;SPS30;74675;51.980;5.730;2023-12-20T09:59:19;6.1;5.6;4.5;3.1;;;;3.0;102.0;
84439;SPS30;74675;51.980;5.730;2023-12-20T10:01:48;7.0;6.5;5.2;3.5;;;;3.0;99.0;
84439;SPS30;74675;51.980;5.730;2023-12-20T10:04:18;6.6;6.1;4.9;3.3;;;;3.0;98.0;
84439;SPS30;74675;51.980;5.730;2023-12-20T10:06:47;6.4;5.9;4.7;3.2;;;;3.0;103.0;
84439;SPS30;74675;51.980;5.730;2023-12-20T10:09:15;6.7;6.1;4.7;3.0;;;;3.0;102.0;
84439;SPS30;74675;51.980;5.730;2023-12-20T10:11:44;9.3;8.5;6.5;4.0;;;;3.0;101.0;
84439;SPS30;74675;51.980;5.730;2023-12-20T10:14:13;6.5;5.9;4.6;2.9;;;;3.0;102.0;
84439;SPS30;74675;51.980;5.730;2023-12-20T10:16:42;6.5;5.9;4.6;2.9;;;;3.0;105.0;
84439;SPS30;74675;51.980;5.730;2023-12-20T10:19:10;7.4;6.7;5.2;3.3;;;;3.0;106.0;
84439;SPS30;74675;51.980;5.730;2023-12-20T10:21:44;7.1;6.4;4.9;3.0;;;;3.0;122.0;
84439;SPS30;74675;51.980;5.730;2023-12-20T10:24:15;9.0;8.2;6.3;3.9;;;;2.0;117.0;
84439;SPS30;74675;51.980;5.730;2023-12-20T10:26:45;7.3;6.7;5.3;3.5;;;;2.0;113.0;
84439;SPS30;74675;51.980;5.730;2023-12-20T10:29:14;5.7;5.3;4.2;2.8;;;;2.0;112.0;
84439;SPS30;74675;51.980;5.730;2023-12-20T10:31:42;6.9;6.4;5.1;3.4;;;;2.0;109.0;
84439;SPS30;74675;51.980;5.730;2023-12-20T10:34:11;6.5;6.0;4.7;3.1;;;;2.0;108.0;
84439;SPS30;74675;51.980;5.730;2023-12-20T10:36:40;7.2;6.6;5.2;3.3;;;;2.0;108.0;
84439;SPS30;74675;51.980;5.730;2023-12-20T10:39:10;6.8;6.2;4.8;3.0;;;;2.0;107.0;
84439;SPS30;74675;51.980;5.730;2023-12-20T10:41:42;5.9;5.4;4.2;2.7;;;;2.0;107.0;
84439;SPS30;74675;51.980;5.730;2023-12-20T10:44:14;7.0;6.4;5.0;3.3;;;;2.0;107.0;
84439;SPS30;74675;51.980;5.730;2023-12-20T10:46:44;6.2;5.7;4.5;2.9;;;;2.0;107.0;
84439;SPS30;74675;51.980;5.730;2023-12-20T10:49:17;7.5;6.9;5.5;3.5;;;;2.0;129.0;
84439;SPS30;74675;51.980;5.730;2023-12-20T10:51:49;7.4;6.7;5.2;3.2;;;;2.0;142.0;
84439;SPS30;74675;51.980;5.730;2023-12-20T10:54:20;6.6;6.0;4.8;3.2;;;;2.0;120.0;
84439;SPS30;74675;51.980;5.730;2023-12-20T10:56:49;7.3;6.7;5.5;3.7;;;;2.0;113.0;
84439;SPS30;74675;51.980;5.730;2023-12-20T10:59:20;5.3;4.9;4.0;2.7;;;;1.0;112.0;
84439;SPS30;74675;51.980;5.730;2023-12-20T11:01:52;6.0;5.6;4.6;3.2;;;;1.0;109.0;
84439;SPS30;74675;51.980;5.730;2023-12-20T11:04:25;5.4;5.0;4.0;2.7;;;;1.0;109.0;
84439;SPS30;74675;51.980;5.730;2023-12-20T11:07:05;5.6;5.2;4.2;3.0;;;;1.0;111.0;
84439;SPS30;74675;51.980;5.730;2023-12-20T11:09:45;4.4;4.1;3.2;2.1;;;;1.0;110.0;
84439;SPS30;74675;51.980;5.730;2023-12-20T11:12:22;6.2;5.7;4.4;2.8;;;;1.0;136.0;
84439;SPS30;74675;51.980;5.730;2023-12-20T11:14:59;6.2;5.7;4.4;2.7;;;;1.0;107.0;
84439;SPS30;74675;51.980;5.730;2023-12-20T11:17:30;7.2;6.6;5.0;3.0;;;;1.0;135.0;
84439;SPS30;74675;51.980;5.730;2023-12-20T11:20:06;6.1;5.6;4.3;2.6;;;;1.0;113.0;
84439;SPS30;74675;51.980;5.730;2023-12-20T11:22:39;6.5;5.9;4.5;2.8;;;;1.0;98.0;
84439;SPS30;74675;51.980;5.730;2023-12-20T11:25:22;6.7;6.1;4.7;2.9;;;;1.0;93.0;
84439;SPS30;74675;51.980;5.730;2023-12-20T11:28:08;7.2;6.6;5.0;3.1;;;;1.0;92.0;
84439;SPS30;74675;51.980;5.730;2023-12-20T11:30:44;6.3;5.7;4.4;2.6;;;;1.0;92.0;
84439;SPS30;74675;51.980;5.730;2023-12-20T11:33:15;6.5;5.9;4.6;2.8;;;;1.0;93.0;
84439;SPS30;74675;51.980;5.730;2023-12-20T11:35:44;7.4;6.8;5.2;3.2;;;;1.0;94.0;
84439;SPS30;74675;51.980;5.730;2023-12-20T11:38:15;7.4;6.7;5.1;3.0;;;;1.0;101.0;
84439;SPS30;74675;51.980;5.730;2023-12-20T11:40:44;6.8;6.1;4.7;2.8;;;;1.0;98.0;
84439;SPS30;74675;51.980;5.730;2023-12-20T11:43:12;6.2;5.7;4.4;2.8;;;;1.0;99.0;
84439;SPS30;74675;51.980;5.730;2023-12-20T11:46:04;6.0;5.5;4.2;2.7;;;;1.0;99.0;
84439;SPS30;74675;51.980;5.730;2023-12-20T11:48:34;6.9;6.2;4.8;2.9;;;;1.0;99.0;
84439;SPS30;74675;51.980;5.730;2023-12-20T11:51:10;7.2;6.5;4.9;2.9;;;;1.0;93.0;
84439;SPS30;74675;51.980;5.730;2023-12-20T11:53:40;7.1;6.5;4.8;2.8;;;;1.0;93.0;
84439;SPS30;74675;51.980;5.730;2023-12-20T11:56:10;6.0;5.4;4.1;2.4;;;;1.0;120.0;
84439;SPS30;74675;51.980;5.730;2023-12-20T11:58:41;6.2;5.6;4.3;2.6;;;;1.0;108.0;
84439;SPS30;74675;51.980;5.730;2023-12-20T12:01:10;5.2;4.7;3.7;2.3;;;;1.0;99.0;
84439;SPS30;74675;51.980;5.730;2023-12-20T12:03:39;5.8;5.2;4.0;2.3;;;;1.0;101.0;
84439;SPS30;74675;51.980;5.730;2023-12-20T12:06:09;6.6;6.0;4.6;2.8;;;;1.0;92.0;
84439;SPS30;74675;51.980;5.730;2023-12-20T12:08:37;5.3;4.9;3.7;2.3;;;;1.0;86.0;
84439;SPS30;74675;51.980;5.730;2023-12-20T12:11:06;4.3;4.0;3.2;2.1;;;;1.0;86.0;
84439;SPS30;74675;51.980;5.730;2023-12-20T12:13:35;4.5;4.2;3.3;2.2;;;;1.0;88.0;
84439;SPS30;74675;51.980;5.730;2023-12-20T12:16:04;5.5;5.0;3.9;2.4;;;;1.0;88.0;